Etusivu
METAR-TAF:

METAR-TAF

Lentoasemat :

Quentin Aanenson Field

Luverne, Minnesota, Yhdysvallat

Leveyspiiri: 43-37-16N, Pituuspiiri: 096-12-58W, korkeus merenpinnasta: 436 m

Tämänhetkinen sää

Tämä raportti tehtiin 25 minuuttia sitten, kello 23.36 UTC
Tuuli 3 kn etelästä
Lämpötila -1°C
Kosteus 86%
Ilmanpaine 1023 hPa
Näkyvyys: 16.1 km
selkeää

METAR: KLYV 142336Z AUTO 18003KT 10SM CLR M01/M03 A3021 RMK AO2

Aika: 18:01 (00:01 UTC)


TAF: puuttuu

Säähavainnot ja -ennusteet yli 4000 lentoasemalta (METAR- ja TAF-raportit).

Käytössä olevat sääasemat on merkitty karttaan keltaisilla ja punaisilla pisteillä.

Aseta hiiri pisteen päälle nähdäksesi sääaseman nimen.

Klikkaa sitten nähdäksesi säähavainnot ja -ennusteet.

Kartan vaihtaminen: klikkaa mustalla rastilla varustettuja vihreitä pisteitä, niin voit zoomata sisään; viivalla varustettua vihreää pistettä, niin voit zoomata ulos tai vihreitä nuolia, niin pääset viereisille kartoille.


METAR-TAF: